Time;durP1;ratioP1;P1;durP2;ratioP2;P2;SDS_P1;SDS_P2;PMS_P1;PMS_P2;Temp;Humidity;BMP_temperature;BMP_pressure;BME280_temperature;BME280_humidity;BME280_pressure;Samples;Min_cycle;Max_cycle;Signal;HPM_P1;HPM_P2
2024/03/04 00:01:50;;;;;;;;;;;2.60;95.70;;;;;;5021737;28;19990;-78
2024/03/04 00:04:15;;;;;;;;;;;2.60;95.60;;;;;;5022546;28;20140;-79
2024/03/04 00:06:41;;;;;;;;;;;2.60;95.50;;;;;;5021995;28;20148;-78
2024/03/04 00:09:08;;;;;;;;;;;2.60;95.60;;;;;;5022171;28;20081;-76
2024/03/04 00:11:34;;;;;;;;;;;2.60;95.60;;;;;;5021226;28;20118;-79
2024/03/04 00:13:59;;;;;;;;;;;2.60;95.60;;;;;;5021982;28;20255;-76
2024/03/04 00:16:25;;;;;;;;;;;2.70;95.30;;;;;;5021374;28;19986;-77
2024/03/04 00:18:51;;;;;;;;;;;2.80;95.50;;;;;;5022058;28;19990;-77
2024/03/04 00:21:17;;;;;;;;;;;2.90;95.00;;;;;;5021692;28;19990;-77
2024/03/04 00:23:44;;;;;;;;;;;2.80;95.10;;;;;;5021905;28;20109;-80
2024/03/04 00:26:09;;;;;;;;;;;2.60;95.20;;;;;;5024287;28;20540;-77
2024/03/04 00:28:35;;;;;;;;;;;2.40;95.50;;;;;;5025123;28;19993;-78
2024/03/04 00:31:00;;;;;;;;;;;2.30;95.80;;;;;;5020434;28;19990;-76
2024/03/04 00:33:26;;;;;;;;;;;2.20;95.90;;;;;;5025232;28;20585;-80
2024/03/04 00:35:53;;;;;;;;;;;2.20;96.00;;;;;;5024990;28;20095;-76
2024/03/04 00:38:19;;;;;;;;;;;2.20;96.00;;;;;;5025641;28;19990;-77
2024/03/04 00:40:45;;;;;;;;;;;2.10;96.10;;;;;;5025198;28;20032;-81
2024/03/04 00:43:11;;;;;;;;;;;2.00;96.10;;;;;;5025342;28;20033;-76
2024/03/04 00:45:36;;;;;;;;;;;2.00;96.30;;;;;;5023996;28;20437;-75
2024/03/04 00:48:02;;;;;;;;;;;2.00;96.30;;;;;;5024033;28;20000;-76
2024/03/04 00:50:29;;;;;;;;;;;2.00;96.50;;;;;;5024284;28;20028;-77
2024/03/04 00:52:55;;;;;;;;;;;2.00;96.30;;;;;;5021033;28;19986;-79
2024/03/04 00:55:21;;;;;;;;;;;1.80;96.60;;;;;;5024634;28;20145;-80
2024/03/04 00:57:46;;;;;;;;;;;1.90;96.70;;;;;;5024258;28;20453;-77
2024/03/04 01:00:15;;;;;;;;;;;1.80;96.70;;;;;;5024560;28;19989;-78
2024/03/04 01:02:41;;;;;;;;;;;1.80;96.70;;;;;;5024432;28;20057;-77
2024/03/04 01:05:07;;;;;;;;;;;1.90;96.90;;;;;;5024561;28;19986;-77
2024/03/04 01:07:32;;;;;;;;;;;2.00;96.80;;;;;;5024281;28;20056;-80
2024/03/04 01:09:58;;;;;;;;;;;1.90;96.60;;;;;;5023573;28;20066;-78
2024/03/04 01:12:24;;;;;;;;;;;2.00;96.80;;;;;;5024599;28;19989;-80
2024/03/04 01:14:49;;;;;;;;;;;2.00;96.60;;;;;;5025013;28;20052;-80
2024/03/04 01:17:16;;;;;;;;;;;1.90;97.10;;;;;;5024641;28;20559;-79
2024/03/04 01:19:45;;;;;;;;;;;1.90;96.90;;;;;;5024225;28;19989;-80
2024/03/04 01:22:17;;;;;;;;;;;1.90;96.80;;;;;;5024494;28;19996;-78
2024/03/04 01:24:45;;;;;;;;;;;1.90;96.90;;;;;;5024581;28;20169;-82
2024/03/04 01:27:11;;;;;;;;;;;1.80;97.00;;;;;;5024479;28;20170;-79
2024/03/04 01:29:37;;;;;;;;;;;1.90;97.10;;;;;;5019495;28;20092;-78
2024/03/04 01:32:03;;;;;;;;;;;1.90;97.00;;;;;;5021888;28;19990;-82
2024/03/04 01:34:29;;;;;;;;;;;1.80;97.10;;;;;;5023772;28;20084;-77
2024/03/04 01:36:55;;;;;;;;;;;1.80;97.30;;;;;;5016427;28;20036;-80
2024/03/04 01:39:21;;;;;;;;;;;1.80;97.40;;;;;;5024109;28;20568;-77
2024/03/04 01:41:47;;;;;;;;;;;1.90;97.30;;;;;;5023334;28;19997;-78
2024/03/04 01:44:12;;;;;;;;;;;1.80;97.30;;;;;;5023582;28;19989;-77
2024/03/04 01:46:38;;;;;;;;;;;1.70;97.40;;;;;;5018345;28;20005;-78
2024/03/04 01:49:04;;;;;;;;;;;1.70;97.50;;;;;;5021305;28;19990;-79
2024/03/04 01:51:30;;;;;;;;;;;1.70;97.50;;;;;;5021717;28;20024;-78
2024/03/04 01:53:56;;;;;;;;;;;1.70;97.60;;;;;;5023841;28;19990;-78
2024/03/04 01:56:22;;;;;;;;;;;1.70;97.70;;;;;;5021291;28;19998;-78
2024/03/04 01:58:48;;;;;;;;;;;1.70;97.80;;;;;;5023449;28;19992;-78
2024/03/04 02:01:14;;;;;;;;;;;1.60;97.90;;;;;;5020200;28;19986;-79
2024/03/04 02:03:39;;;;;;;;;;;1.60;98.00;;;;;;5020480;28;19993;-78
2024/03/04 02:06:05;;;;;;;;;;;1.60;98.20;;;;;;5023180;28;20113;-78
2024/03/04 02:08:31;;;;;;;;;;;1.50;98.30;;;;;;5024022;28;19986;-79
2024/03/04 02:10:57;;;;;;;;;;;1.50;98.40;;;;;;5022990;28;19993;-76
2024/03/04 02:13:23;;;;;;;;;;;1.50;98.50;;;;;;5023551;28;20111;-78
2024/03/04 02:15:50;;;;;;;;;;;1.50;98.40;;;;;;5023221;28;19998;-81
2024/03/04 02:18:15;;;;;;;;;;;1.50;98.50;;;;;;5023223;28;19990;-80
2024/03/04 02:20:43;;;;;;;;;;;1.50;98.50;;;;;;5022681;28;19993;-77
2024/03/04 02:23:10;;;;;;;;;;;1.50;98.50;;;;;;5023506;28;19986;-79
2024/03/04 02:25:36;;;;;;;;;;;1.50;98.50;;;;;;5022893;28;20044;-79
2024/03/04 02:28:02;;;;;;;;;;;1.40;98.50;;;;;;5022829;28;19993;-77
2024/03/04 02:30:31;;;;;;;;;;;1.40;98.70;;;;;;5017200;28;20028;-77
2024/03/04 02:33:02;;;;;;;;;;;1.40;98.70;;;;;;5020596;28;20619;-77
2024/03/04 02:35:29;;;;;;;;;;;1.40;98.80;;;;;;5022809;28;20441;-78
2024/03/04 02:37:55;;;;;;;;;;;1.40;98.90;;;;;;5022194;28;20532;-80
2024/03/04 02:40:20;;;;;;;;;;;1.50;98.90;;;;;;5022987;28;20097;-76
2024/03/04 02:42:46;;;;;;;;;;;1.50;99.10;;;;;;5021633;28;20339;-78
2024/03/04 02:45:12;;;;;;;;;;;1.40;99.20;;;;;;5022528;28;20000;-76
2024/03/04 02:47:38;;;;;;;;;;;1.30;99.20;;;;;;5020805;28;20014;-77
2024/03/04 02:50:05;;;;;;;;;;;1.30;99.20;;;;;;5022165;28;20029;-79
2024/03/04 02:52:30;;;;;;;;;;;1.30;99.40;;;;;;5022307;28;20452;-79
2024/03/04 02:54:56;;;;;;;;;;;1.40;99.50;;;;;;5019553;28;19989;-78
2024/03/04 02:57:22;;;;;;;;;;;1.30;99.70;;;;;;5022503;28;20441;-77
2024/03/04 02:59:47;;;;;;;;;;;1.20;99.70;;;;;;5022849;28;20092;-76
2024/03/04 03:02:13;;;;;;;;;;;1.20;99.80;;;;;;5023226;28;19996;-81
2024/03/04 03:04:38;;;;;;;;;;;1.20;99.90;;;;;;5021904;28;20028;-75
2024/03/04 03:07:04;;;;;;;;;;;1.10;99.90;;;;;;5022709;28;20108;-80
2024/03/04 03:09:29;;;;;;;;;;;1.00;99.90;;;;;;5022556;28;19990;-78
2024/03/04 03:11:55;;;;;;;;;;;0.90;99.90;;;;;;5022068;28;20414;-77
2024/03/04 03:14:21;;;;;;;;;;;0.90;99.90;;;;;;5023095;28;19986;-78
2024/03/04 03:16:48;;;;;;;;;;;0.90;99.90;;;;;;5021974;28;19981;-77
2024/03/04 03:19:20;;;;;;;;;;;1.00;99.90;;;;;;5022582;28;20045;-77
2024/03/04 03:21:46;;;;;;;;;;;1.00;99.90;;;;;;5021810;28;19990;-78
2024/03/04 03:24:11;;;;;;;;;;;0.90;99.90;;;;;;5022213;28;19992;-77
2024/03/04 03:26:38;;;;;;;;;;;1.00;99.90;;;;;;5021601;28;20028;-75
2024/03/04 03:29:03;;;;;;;;;;;1.00;99.90;;;;;;5021312;28;19990;-76
2024/03/04 03:31:29;;;;;;;;;;;1.10;99.90;;;;;;5015387;28;19993;-76
2024/03/04 03:33:54;;;;;;;;;;;1.00;99.90;;;;;;5020983;28;20791;-81
2024/03/04 03:36:20;;;;;;;;;;;0.80;99.90;;;;;;5021539;28;19986;-77
2024/03/04 03:38:46;;;;;;;;;;;0.70;99.90;;;;;;5018927;28;19996;-78
2024/03/04 03:41:13;;;;;;;;;;;0.60;99.90;;;;;;5014639;28;20433;-76
2024/03/04 03:43:38;;;;;;;;;;;0.50;99.90;;;;;;5022363;28;20101;-75
2024/03/04 03:46:04;;;;;;;;;;;0.30;99.90;;;;;;5021283;28;20336;-80
2024/03/04 03:48:30;;;;;;;;;;;0.20;99.90;;;;;;5021718;28;20437;-76
2024/03/04 03:50:55;;;;;;;;;;;0.20;99.90;;;;;;5021844;28;20064;-78
2024/03/04 03:53:22;;;;;;;;;;;0.10;99.90;;;;;;5021679;28;20072;-76
2024/03/04 03:55:48;;;;;;;;;;;0.10;99.90;;;;;;5020134;28;20202;-76
2024/03/04 03:58:14;;;;;;;;;;;0.20;99.90;;;;;;5021640;28;20445;-77
2024/03/04 04:00:39;;;;;;;;;;;0.30;99.90;;;;;;5021664;28;19997;-80
2024/03/04 04:03:05;;;;;;;;;;;0.30;99.90;;;;;;5025548;28;19996;-80
2024/03/04 04:05:30;;;;;;;;;;;0.10;99.90;;;;;;5024721;28;19993;-78
2024/03/04 04:07:57;;;;;;;;;;;0.10;99.90;;;;;;5025556;28;19989;-78
2024/03/04 04:10:23;;;;;;;;;;;0.10;99.90;;;;;;5024387;28;20001;-76
2024/03/04 04:12:51;;;;;;;;;;;0.20;99.90;;;;;;5025721;28;19990;-76
2024/03/04 04:15:17;;;;;;;;;;;0.40;99.90;;;;;;5025430;28;20044;-78
2024/03/04 04:17:43;;;;;;;;;;;0.40;99.90;;;;;;5025214;28;20698;-77
2024/03/04 04:20:09;;;;;;;;;;;0.40;99.90;;;;;;5025051;28;19994;-75
2024/03/04 04:22:35;;;;;;;;;;;0.40;99.90;;;;;;5025641;28;19985;-78
2024/03/04 04:25:01;;;;;;;;;;;0.30;99.90;;;;;;5025055;28;19994;-76
2024/03/04 04:27:26;;;;;;;;;;;0.40;99.90;;;;;;5024611;28;20049;-77
2024/03/04 04:29:52;;;;;;;;;;;0.50;99.90;;;;;;5023152;28;19993;-75
2024/03/04 04:32:17;;;;;;;;;;;0.40;99.90;;;;;;5025068;28;19996;-79
2024/03/04 04:34:43;;;;;;;;;;;0.50;99.90;;;;;;5024453;28;19986;-78
2024/03/04 04:37:12;;;;;;;;;;;0.50;99.90;;;;;;5024953;28;19996;-76
2024/03/04 04:39:38;;;;;;;;;;;0.50;99.90;;;;;;5020841;28;20039;-76
2024/03/04 04:42:05;;;;;;;;;;;0.60;99.90;;;;;;5024340;28;19993;-77
2024/03/04 04:44:31;;;;;;;;;;;0.50;99.90;;;;;;5019792;28;19993;-77
2024/03/04 04:46:57;;;;;;;;;;;0.50;99.90;;;;;;5024396;28;20457;-77
2024/03/04 04:49:22;;;;;;;;;;;0.10;99.90;;;;;;5019217;28;19996;-78
2024/03/04 04:51:48;;;;;;;;;;;0.00;99.90;;;;;;5023289;28;20463;-76
2024/03/04 04:54:15;;;;;;;;;;;-0.10;99.90;;;;;;5023232;28;19989;-78
2024/03/04 04:56:40;;;;;;;;;;;-0.10;99.90;;;;;;5024693;28;19993;-76
2024/03/04 04:59:06;;;;;;;;;;;-0.10;99.90;;;;;;5019146;28;19994;-79
2024/03/04 05:01:32;;;;;;;;;;;-0.10;99.90;;;;;;5022950;28;19989;-76
2024/03/04 05:03:58;;;;;;;;;;;-0.20;99.90;;;;;;5024166;28;19997;-78
2024/03/04 05:06:24;;;;;;;;;;;-0.20;99.90;;;;;;5024216;28;20010;-79
2024/03/04 05:08:49;;;;;;;;;;;-0.20;99.90;;;;;;5022828;28;19997;-77
2024/03/04 05:11:15;;;;;;;;;;;-0.20;99.90;;;;;;5023530;28;20441;-79
2024/03/04 05:13:41;;;;;;;;;;;-0.20;99.90;;;;;;5024474;28;19986;-75
2024/03/04 05:16:07;;;;;;;;;;;-0.20;99.90;;;;;;5023656;28;20012;-75
2024/03/04 05:18:33;;;;;;;;;;;-0.10;99.90;;;;;;5023679;28;20040;-77
2024/03/04 05:20:58;;;;;;;;;;;-0.30;99.90;;;;;;5021194;28;20177;-76
2024/03/04 05:23:24;;;;;;;;;;;-0.50;99.90;;;;;;5024841;28;19993;-77
2024/03/04 05:25:50;;;;;;;;;;;-0.70;99.90;;;;;;5024575;28;20041;-79
2024/03/04 05:28:15;;;;;;;;;;;-0.60;99.90;;;;;;5024168;28;19990;-77
2024/03/04 05:30:41;;;;;;;;;;;-0.60;99.90;;;;;;5019182;28;20331;-77
2024/03/04 05:33:07;;;;;;;;;;;-0.60;99.90;;;;;;5022319;28;20085;-75
2024/03/04 05:35:33;;;;;;;;;;;-0.40;99.90;;;;;;5022585;28;19993;-77
2024/03/04 05:37:59;;;;;;;;;;;-0.10;99.90;;;;;;5018583;28;20729;-77
2024/03/04 05:40:25;;;;;;;;;;;0.10;99.90;;;;;;5023932;28;19993;-77
2024/03/04 05:42:51;;;;;;;;;;;0.00;99.90;;;;;;5023938;28;20466;-77
2024/03/04 05:45:16;;;;;;;;;;;-0.10;99.90;;;;;;5023827;28;20093;-76
2024/03/04 05:47:42;;;;;;;;;;;-0.20;99.90;;;;;;5019265;28;20010;-76
2024/03/04 05:50:08;;;;;;;;;;;-0.30;99.90;;;;;;5024296;28;20497;-77
2024/03/04 05:52:33;;;;;;;;;;;-0.40;99.90;;;;;;5024072;28;19990;-76
2024/03/04 05:54:59;;;;;;;;;;;-0.30;99.90;;;;;;5022130;28;20060;-76
2024/03/04 05:57:24;;;;;;;;;;;-0.30;99.90;;;;;;5024041;28;20033;-76
2024/03/04 05:59:50;;;;;;;;;;;-0.30;99.90;;;;;;5023986;28;19990;-78
2024/03/04 06:02:15;;;;;;;;;;;-0.30;99.90;;;;;;5023370;28;20085;-81
2024/03/04 06:04:41;;;;;;;;;;;-0.30;99.90;;;;;;5021950;28;20084;-75
2024/03/04 06:07:06;;;;;;;;;;;-0.40;99.90;;;;;;5034364;28;20009;-78
2024/03/04 06:09:32;;;;;;;;;;;-0.30;99.90;;;;;;5022368;28;19985;-75
2024/03/04 06:11:57;;;;;;;;;;;-0.30;99.90;;;;;;5027328;28;20457;-76
2024/03/04 06:14:23;;;;;;;;;;;-0.20;99.90;;;;;;5027220;28;20758;-77
2024/03/04 06:16:49;;;;;;;;;;;-0.20;99.90;;;;;;5025835;28;20710;-76
2024/03/04 06:19:15;;;;;;;;;;;-0.20;99.90;;;;;;5023415;28;20763;-79
2024/03/04 06:21:42;;;;;;;;;;;-0.20;99.90;;;;;;5023076;28;20006;-80
2024/03/04 06:24:08;;;;;;;;;;;-0.20;99.90;;;;;;5020066;28;20057;-76
2024/03/04 06:26:34;;;;;;;;;;;-0.10;99.90;;;;;;5023051;28;20909;-76
2024/03/04 06:28:59;;;;;;;;;;;0.00;99.90;;;;;;5023184;28;19986;-77
2024/03/04 06:31:25;;;;;;;;;;;0.00;99.90;;;;;;5017517;28;20647;-78
2024/03/04 06:33:51;;;;;;;;;;;0.00;99.90;;;;;;5023713;28;20037;-77
2024/03/04 06:36:16;;;;;;;;;;;-0.10;99.90;;;;;;5022979;28;20080;-78
2024/03/04 06:38:42;;;;;;;;;;;-0.20;99.90;;;;;;5023585;28;19985;-75
2024/03/04 06:41:07;;;;;;;;;;;-0.10;99.90;;;;;;5023449;28;19981;-75
2024/03/04 06:43:33;;;;;;;;;;;-0.10;99.90;;;;;;5023190;28;20461;-77
2024/03/04 06:45:59;;;;;;;;;;;0.00;99.90;;;;;;5023135;28;20005;-78
2024/03/04 06:48:25;;;;;;;;;;;0.10;99.90;;;;;;5023606;28;19989;-78
2024/03/04 06:50:51;;;;;;;;;;;-0.10;99.90;;;;;;5019513;28;20021;-80
2024/03/04 06:53:16;;;;;;;;;;;0.00;99.90;;;;;;5015074;28;19994;-81
2024/03/04 06:55:42;;;;;;;;;;;0.00;99.90;;;;;;5017071;28;20004;-78
2024/03/04 06:58:07;;;;;;;;;;;0.10;99.90;;;;;;5021914;28;20013;-78
2024/03/04 07:00:33;;;;;;;;;;;0.10;99.90;;;;;;5021675;28;19990;-77
2024/03/04 07:02:59;;;;;;;;;;;0.10;99.90;;;;;;5020266;28;20524;-78
2024/03/04 07:05:25;;;;;;;;;;;0.50;99.90;;;;;;5021743;28;20543;-78
2024/03/04 07:07:50;;;;;;;;;;;0.50;99.90;;;;;;5021635;28;20006;-78
2024/03/04 07:10:16;;;;;;;;;;;0.50;99.90;;;;;;5021577;28;19985;-78
2024/03/04 07:12:42;;;;;;;;;;;0.60;99.90;;;;;;5021410;28;19982;-78
2024/03/04 07:15:07;;;;;;;;;;;0.60;99.90;;;;;;5021690;28;20030;-78
2024/03/04 07:17:34;;;;;;;;;;;0.80;99.90;;;;;;5020418;28;20437;-79
2024/03/04 07:19:59;;;;;;;;;;;0.70;99.90;;;;;;5020796;28;19992;-78
2024/03/04 07:22:25;;;;;;;;;;;0.80;99.90;;;;;;5020207;28;19986;-80
2024/03/04 07:24:50;;;;;;;;;;;0.70;99.90;;;;;;5021145;28;20856;-77
2024/03/04 07:27:16;;;;;;;;;;;0.80;99.90;;;;;;5028013;28;20376;-81
2024/03/04 07:29:41;;;;;;;;;;;1.20;99.90;;;;;;5021355;28;19988;-78
2024/03/04 07:32:07;;;;;;;;;;;1.50;99.90;;;;;;5020720;28;20465;-76
2024/03/04 07:34:33;;;;;;;;;;;1.60;99.90;;;;;;5020019;28;19990;-78
2024/03/04 07:36:58;;;;;;;;;;;2.00;99.90;;;;;;5020763;28;19990;-77
2024/03/04 07:39:24;;;;;;;;;;;2.10;99.90;;;;;;5021608;28;19986;-79
2024/03/04 07:41:50;;;;;;;;;;;2.80;99.90;;;;;;5020514;28;19986;-80
2024/03/04 07:44:17;;;;;;;;;;;2.90;99.90;;;;;;5021243;28;20580;-78
2024/03/04 07:46:44;;;;;;;;;;;3.30;99.90;;;;;;5020750;28;20014;-77
2024/03/04 07:49:09;;;;;;;;;;;3.50;99.90;;;;;;5012559;28;20005;-78
2024/03/04 07:51:35;;;;;;;;;;;3.40;99.90;;;;;;4980551;28;1148241;-78
2024/03/04 07:54:01;;;;;;;;;;;2.80;99.90;;;;;;5022062;28;20068;-77
2024/03/04 07:56:26;;;;;;;;;;;3.10;99.90;;;;;;5021603;28;20024;-80
2024/03/04 07:58:52;;;;;;;;;;;3.10;99.90;;;;;;5022332;28;20532;-77
2024/03/04 08:01:17;;;;;;;;;;;3.40;99.90;;;;;;5022095;28;20128;-79
2024/03/04 08:03:45;;;;;;;;;;;3.40;99.90;;;;;;5022064;28;20345;-78
2024/03/04 08:06:10;;;;;;;;;;;4.20;99.90;;;;;;5022079;28;20014;-78
2024/03/04 08:08:36;;;;;;;;;;;4.10;99.90;;;;;;5021083;28;20667;-78
2024/03/04 08:11:03;;;;;;;;;;;4.60;99.90;;;;;;5022103;28;19990;-79
2024/03/04 08:13:29;;;;;;;;;;;3.80;99.90;;;;;;5008784;28;20516;-77
2024/03/04 08:15:54;;;;;;;;;;;4.20;99.90;;;;;;5020870;28;19986;-79
2024/03/04 08:18:20;;;;;;;;;;;4.10;99.90;;;;;;5022476;28;19990;-78
2024/03/04 08:20:47;;;;;;;;;;;3.60;99.90;;;;;;5021735;28;19986;-79
2024/03/04 08:23:13;;;;;;;;;;;3.40;99.90;;;;;;5022111;28;20036;-78
2024/03/04 08:25:39;;;;;;;;;;;3.70;99.90;;;;;;5020444;28;20108;-77
2024/03/04 08:28:05;;;;;;;;;;;4.20;99.90;;;;;;5021617;28;20357;-79
2024/03/04 08:30:30;;;;;;;;;;;4.10;99.90;;;;;;5021482;28;19986;-78
2024/03/04 08:32:56;;;;;;;;;;;4.10;99.90;;;;;;5020985;28;19986;-77
2024/03/04 08:35:21;;;;;;;;;;;4.10;99.90;;;;;;5021647;28;20457;-78
2024/03/04 08:37:47;;;;;;;;;;;4.80;99.90;;;;;;5021949;28;19985;-77
2024/03/04 08:40:13;;;;;;;;;;;5.10;98.90;;;;;;5021544;28;20008;-79
2024/03/04 08:42:40;;;;;;;;;;;5.60;99.40;;;;;;5021053;28;19992;-79
2024/03/04 08:45:06;;;;;;;;;;;5.80;97.60;;;;;;5022221;28;19986;-78
2024/03/04 08:47:32;;;;;;;;;;;5.90;97.00;;;;;;5024996;28;20006;-79
2024/03/04 08:49:57;;;;;;;;;;;6.10;96.60;;;;;;5024800;28;20702;-79
2024/03/04 08:52:24;;;;;;;;;;;6.10;95.70;;;;;;5024437;28;20005;-80
2024/03/04 08:54:50;;;;;;;;;;;5.70;95.80;;;;;;5013188;28;20028;-80
2024/03/04 08:57:15;;;;;;;;;;;5.50;96.70;;;;;;5023267;28;19990;-80
2024/03/04 08:59:41;;;;;;;;;;;5.00;95.90;;;;;;5023061;28;20445;-78
2024/03/04 09:02:06;;;;;;;;;;;5.10;97.10;;;;;;5024834;28;20453;-80
2024/03/04 09:04:32;;;;;;;;;;;5.10;97.80;;;;;;5019765;28;20033;-78
2024/03/04 09:06:58;;;;;;;;;;;5.40;97.00;;;;;;5018971;28;20064;-78
2024/03/04 09:09:23;;;;;;;;;;;6.40;95.80;;;;;;5024727;28;19997;-78
2024/03/04 09:11:51;;;;;;;;;;;8.30;93.40;;;;;;5024257;28;19986;-79
2024/03/04 09:14:17;;;;;;;;;;;8.30;90.40;;;;;;5022846;28;20032;-77
2024/03/04 09:16:43;;;;;;;;;;;8.40;86.40;;;;;;5024519;28;20097;-78
2024/03/04 09:19:10;;;;;;;;;;;9.10;83.20;;;;;;5023762;28;19989;-78
2024/03/04 09:21:36;;;;;;;;;;;10.10;80.80;;;;;;5023812;28;19989;-80
2024/03/04 09:24:01;;;;;;;;;;;10.10;78.30;;;;;;5023475;28;20505;-80
2024/03/04 09:26:27;;;;;;;;;;;10.80;79.80;;;;;;5023653;28;20009;-80
2024/03/04 09:28:53;;;;;;;;;;;10.20;80.70;;;;;;5023416;28;20000;-79
2024/03/04 09:31:19;;;;;;;;;;;11.20;78.90;;;;;;5018036;28;20109;-78
2024/03/04 09:33:45;;;;;;;;;;;10.80;78.50;;;;;;5023713;28;19986;-80
2024/03/04 09:36:10;;;;;;;;;;;11.00;77.10;;;;;;5024339;28;19997;-78
2024/03/04 09:38:36;;;;;;;;;;;11.20;76.40;;;;;;5023605;28;20073;-79
2024/03/04 09:41:03;;;;;;;;;;;10.20;78.90;;;;;;5024193;28;19986;-79
2024/03/04 09:43:29;;;;;;;;;;;10.60;78.90;;;;;;5023394;28;19988;-78
2024/03/04 09:45:56;;;;;;;;;;;10.40;75.90;;;;;;5023370;28;19993;-81
2024/03/04 09:48:23;;;;;;;;;;;10.50;75.40;;;;;;5016546;28;20043;-79
2024/03/04 09:50:50;;;;;;;;;;;10.30;78.40;;;;;;5023413;28;20682;-79
2024/03/04 09:53:17;;;;;;;;;;;10.20;78.30;;;;;;5023965;28;19985;-79
2024/03/04 09:55:43;;;;;;;;;;;10.10;75.10;;;;;;5021372;28;20036;-81
2024/03/04 09:58:08;;;;;;;;;;;10.30;76.00;;;;;;5022763;28;20037;-79
2024/03/04 10:00:35;;;;;;;;;;;9.80;75.80;;;;;;5023890;28;20472;-78
2024/03/04 10:03:01;;;;;;;;;;;9.70;79.00;;;;;;5023252;28;19996;-79
2024/03/04 10:05:27;;;;;;;;;;;9.70;79.80;;;;;;5022136;28;20131;-78
2024/03/04 10:07:53;;;;;;;;;;;9.30;80.50;;;;;;5023765;28;20035;-79
2024/03/04 10:10:18;;;;;;;;;;;8.50;84.90;;;;;;5023747;28;20449;-79
2024/03/04 10:12:44;;;;;;;;;;;9.00;87.10;;;;;;5022111;28;19986;-78
2024/03/04 10:15:10;;;;;;;;;;;9.20;84.20;;;;;;5018865;28;20914;-79
2024/03/04 10:17:39;;;;;;;;;;;9.20;83.70;;;;;;5023452;28;19986;-81
2024/03/04 10:20:05;;;;;;;;;;;9.50;83.20;;;;;;5022656;28;19990;-79
2024/03/04 10:22:32;;;;;;;;;;;9.20;82.20;;;;;;5021122;28;20039;-79
2024/03/04 10:25:08;;;;;;;;;;;9.50;83.50;;;;;;5013953;28;19986;-80
2024/03/04 10:27:40;;;;;;;;;;;9.30;83.50;;;;;;5022422;28;20005;-79
2024/03/04 10:30:15;;;;;;;;;;;8.90;84.50;;;;;;5015431;28;20060;-79
2024/03/04 10:32:45;;;;;;;;;;;8.60;86.30;;;;;;5019813;28;20367;-79
2024/03/04 10:35:11;;;;;;;;;;;8.30;86.70;;;;;;5021895;28;20172;-80
2024/03/04 10:37:36;;;;;;;;;;;8.50;85.10;;;;;;5022000;28;20513;-80
2024/03/04 10:40:04;;;;;;;;;;;8.40;85.80;;;;;;5022726;28;20506;-79
2024/03/04 10:42:29;;;;;;;;;;;8.50;84.90;;;;;;5023161;28;20021;-80
2024/03/04 10:44:56;;;;;;;;;;;8.50;86.10;;;;;;5023605;28;19986;-80
2024/03/04 10:47:22;;;;;;;;;;;8.50;85.00;;;;;;5022946;28;20056;-79
2024/03/04 10:49:50;;;;;;;;;;;8.50;84.60;;;;;;5022771;28;20132;-79
2024/03/04 10:52:19;;;;;;;;;;;8.60;82.80;;;;;;5019716;28;19990;-79
2024/03/04 10:54:45;;;;;;;;;;;9.00;83.70;;;;;;5019184;28;19990;-79
2024/03/04 10:57:28;;;;;;;;;;;9.00;81.90;;;;;;5022558;28;19986;-79
2024/03/04 10:59:53;;;;;;;;;;;8.90;82.90;;;;;;5022883;28;20701;-80
2024/03/04 11:02:19;;;;;;;;;;;8.90;81.60;;;;;;5022827;28;19989;-79
2024/03/04 11:04:47;;;;;;;;;;;8.80;81.30;;;;;;5022598;28;20096;-80
2024/03/04 11:07:15;;;;;;;;;;;8.80;81.20;;;;;;5023145;28;20010;-80
2024/03/04 11:09:42;;;;;;;;;;;8.70;81.30;;;;;;5023075;28;20005;-79
2024/03/04 11:12:09;;;;;;;;;;;8.60;79.70;;;;;;5023681;28;19986;-80
2024/03/04 11:14:40;;;;;;;;;;;8.80;80.00;;;;;;5022562;28;19981;-81
2024/03/04 11:17:35;;;;;;;;;;;9.10;77.70;;;;;;5022766;28;19985;-79
2024/03/04 11:20:03;;;;;;;;;;;8.80;78.40;;;;;;5021310;28;20040;-82
2024/03/04 11:22:28;;;;;;;;;;;8.90;78.90;;;;;;5018263;28;19985;-79
2024/03/04 11:24:55;;;;;;;;;;;9.20;79.60;;;;;;5022706;28;19985;-79
2024/03/04 11:27:22;;;;;;;;;;;9.30;81.20;;;;;;5022438;28;20006;-80
2024/03/04 11:29:49;;;;;;;;;;;9.30;79.90;;;;;;5021402;28;19986;-79
2024/03/04 11:32:22;;;;;;;;;;;9.20;78.00;;;;;;5022266;28;19993;-79
2024/03/04 11:34:56;;;;;;;;;;;9.30;77.50;;;;;;5019841;28;20132;-79
2024/03/04 11:37:28;;;;;;;;;;;9.30;80.00;;;;;;5022369;28;20352;-79
2024/03/04 11:39:53;;;;;;;;;;;9.40;78.50;;;;;;5022270;28;20449;-81
2024/03/04 11:42:34;;;;;;;;;;;9.60;80.60;;;;;;5022083;28;19993;-79
2024/03/04 11:45:00;;;;;;;;;;;9.90;82.80;;;;;;5021914;28;19992;-79
2024/03/04 11:47:32;;;;;;;;;;;9.90;81.60;;;;;;5021494;28;20005;-81
2024/03/04 11:49:57;;;;;;;;;;;9.70;79.70;;;;;;5020059;28;20021;-79
2024/03/04 11:52:25;;;;;;;;;;;9.90;82.40;;;;;;5021862;28;19990;-80
2024/03/04 11:54:50;;;;;;;;;;;9.80;79.40;;;;;;5021119;28;19992;-79
2024/03/04 11:57:17;;;;;;;;;;;9.90;78.20;;;;;;5022117;28;19993;-79
2024/03/04 12:00:09;;;;;;;;;;;10.00;76.90;;;;;;5022186;28;20067;-78
2024/03/04 12:02:37;;;;;;;;;;;10.00;73.60;;;;;;5017099;28;19982;-79
2024/03/04 12:05:03;;;;;;;;;;;9.90;73.30;;;;;;5021557;28;19986;-79
2024/03/04 12:07:29;;;;;;;;;;;10.20;74.60;;;;;;5021372;28;20791;-79
2024/03/04 12:09:59;;;;;;;;;;;10.40;76.50;;;;;;5021510;28;19986;-80
2024/03/04 12:12:24;;;;;;;;;;;10.50;76.40;;;;;;5021379;28;19982;-79
2024/03/04 12:14:50;;;;;;;;;;;10.40;74.20;;;;;;5021069;28;19985;-79
2024/03/04 12:17:16;;;;;;;;;;;10.50;72.10;;;;;;5021556;28;20125;-80
2024/03/04 12:19:55;;;;;;;;;;;10.40;69.60;;;;;;5021127;28;20453;-79
2024/03/04 12:22:27;;;;;;;;;;;10.10;68.10;;;;;;5024309;28;19986;-79
2024/03/04 12:25:03;;;;;;;;;;;10.20;66.80;;;;;;5025866;28;19986;-80
2024/03/04 12:27:30;;;;;;;;;;;10.10;65.00;;;;;;5025123;28;20012;-79
2024/03/04 12:30:16;;;;;;;;;;;10.30;65.50;;;;;;5025133;28;19986;-80
2024/03/04 12:32:42;;;;;;;;;;;10.40;64.80;;;;;;5023116;28;20204;-79
2024/03/04 12:35:22;;;;;;;;;;;10.40;63.50;;;;;;5024868;28;20662;-79
2024/03/04 12:37:49;;;;;;;;;;;10.40;62.80;;;;;;5024867;28;20075;-79
2024/03/04 12:40:16;;;;;;;;;;;10.40;60.90;;;;;;5021487;28;20481;-79
2024/03/04 12:42:42;;;;;;;;;;;10.60;62.30;;;;;;5025363;28;20100;-79
2024/03/04 12:45:07;;;;;;;;;;;10.80;63.70;;;;;;5022738;28;20828;-79
2024/03/04 12:47:34;;;;;;;;;;;10.90;61.50;;;;;;5024538;28;20010;-79
2024/03/04 12:50:05;;;;;;;;;;;10.80;59.20;;;;;;5025162;28;20022;-79
2024/03/04 12:52:31;;;;;;;;;;;11.00;62.40;;;;;;5024792;28;19986;-79
2024/03/04 12:54:56;;;;;;;;;;;11.00;60.20;;;;;;5023410;28;20715;-79
2024/03/04 12:57:23;;;;;;;;;;;10.50;59.60;;;;;;5024544;28;19986;-79
2024/03/04 12:59:50;;;;;;;;;;;10.70;57.90;;;;;;5024652;28;19997;-79
2024/03/04 13:02:16;;;;;;;;;;;10.80;58.30;;;;;;5024801;28;19986;-80
2024/03/04 13:04:41;;;;;;;;;;;11.10;58.40;;;;;;5024859;28;19986;-80
2024/03/04 13:07:07;;;;;;;;;;;11.20;58.30;;;;;;5023359;28;20516;-79
2024/03/04 13:09:33;;;;;;;;;;;11.00;57.70;;;;;;5025282;28;19990;-80
2024/03/04 13:11:58;;;;;;;;;;;11.00;57.10;;;;;;5025203;28;20457;-80
2024/03/04 13:14:24;;;;;;;;;;;10.90;54.00;;;;;;5023990;28;20064;-82
2024/03/04 13:16:50;;;;;;;;;;;11.10;51.60;;;;;;5024868;28;19986;-82
2024/03/04 13:19:16;;;;;;;;;;;11.00;53.30;;;;;;5024288;28;19996;-80
2024/03/04 13:21:41;;;;;;;;;;;11.30;54.90;;;;;;5024655;28;19993;-80
2024/03/04 13:24:07;;;;;;;;;;;11.30;53.70;;;;;;5024739;28;20029;-79
2024/03/04 13:26:33;;;;;;;;;;;11.40;55.10;;;;;;5024253;28;20009;-79
2024/03/04 13:28:58;;;;;;;;;;;11.40;53.50;;;;;;5024642;28;20457;-80
2024/03/04 13:31:24;;;;;;;;;;;11.50;52.50;;;;;;5023781;28;20454;-82
2024/03/04 13:33:50;;;;;;;;;;;11.60;53.80;;;;;;5024473;28;20230;-79
2024/03/04 13:36:16;;;;;;;;;;;11.30;50.60;;;;;;5024085;28;20637;-80
2024/03/04 13:38:41;;;;;;;;;;;11.40;51.20;;;;;;5024358;28;19992;-80
2024/03/04 13:41:07;;;;;;;;;;;11.60;51.00;;;;;;5023951;28;19982;-79
2024/03/04 13:43:32;;;;;;;;;;;11.60;49.30;;;;;;5024226;28;20085;-79
2024/03/04 13:45:58;;;;;;;;;;;11.50;52.00;;;;;;5022002;28;20080;-80
2024/03/04 13:48:23;;;;;;;;;;;11.60;51.60;;;;;;5023218;28;20108;-79
2024/03/04 13:50:49;;;;;;;;;;;11.60;51.90;;;;;;5022832;28;20021;-80
2024/03/04 13:53:15;;;;;;;;;;;11.70;52.50;;;;;;5023730;28;19986;-80
2024/03/04 13:55:40;;;;;;;;;;;11.70;50.70;;;;;;5023156;28;19985;-79
2024/03/04 13:58:07;;;;;;;;;;;11.70;53.30;;;;;;5023553;28;20468;-80
2024/03/04 14:00:32;;;;;;;;;;;11.90;54.60;;;;;;5023099;28;20400;-79
2024/03/04 14:02:58;;;;;;;;;;;11.80;50.90;;;;;;5023542;28;20078;-79
2024/03/04 14:05:24;;;;;;;;;;;11.70;51.80;;;;;;5021961;28;20089;-79
2024/03/04 14:07:50;;;;;;;;;;;11.80;51.70;;;;;;5023170;28;20068;-80
2024/03/04 14:10:16;;;;;;;;;;;12.00;50.20;;;;;;5023523;28;20508;-80
2024/03/04 14:12:41;;;;;;;;;;;11.90;51.60;;;;;;5023002;28;19993;-80
2024/03/04 14:15:08;;;;;;;;;;;11.90;52.10;;;;;;5019162;28;19986;-80
2024/03/04 14:17:34;;;;;;;;;;;11.70;51.10;;;;;;5022792;28;20004;-79
2024/03/04 14:20:05;;;;;;;;;;;11.60;51.70;;;;;;5023575;28;19986;-79
2024/03/04 14:22:34;;;;;;;;;;;11.60;51.20;;;;;;5023039;28;20080;-79